Time;durP1;ratioP1;P1;durP2;ratioP2;P2;SDS_P1;SDS_P2;PMS_P1;PMS_P2;Temp;Humidity;BMP_temperature;BMP_pressure;BME280_temperature;BME280_humidity;BME280_pressure;Samples;Min_cycle;Max_cycle;Signal;HPM_P1;HPM_P2
2022/07/04 00:01:13;;;;;;;3.38;1.38;;;;;;;23.02;44.29;100767.91;4181333;28;20545;-69
2022/07/04 00:03:16;;;;;;;3.70;1.50;;;;;;;23.15;44.31;100767.56;4175977;28;20461;-69
2022/07/04 00:05:20;;;;;;;4.60;1.70;;;;;;;23.20;44.05;100767.41;4166121;28;20053;-68
2022/07/04 00:07:23;;;;;;;7.90;1.73;;;;;;;23.13;44.05;100772.03;4156136;28;20080;-69
2022/07/04 00:09:25;;;;;;;4.45;1.60;;;;;;;23.12;43.50;100763.22;4181624;28;20048;-69
2022/07/04 00:11:30;;;;;;;6.63;1.83;;;;;;;23.10;43.56;100761.50;4178683;28;20047;-70
2022/07/04 00:13:33;;;;;;;1.90;1.20;;;;;;;23.04;43.65;100759.03;4152406;28;20053;-69
2022/07/04 00:15:36;;;;;;;4.25;1.42;;;;;;;22.94;43.62;100764.66;4180241;28;20044;-69
2022/07/04 00:17:39;;;;;;;3.80;1.45;;;;;;;22.96;43.84;100776.06;4164323;28;20045;-69
2022/07/04 00:19:41;;;;;;;3.13;1.70;;;;;;;22.90;43.94;100760.38;4180649;28;20037;-69
2022/07/04 00:21:45;;;;;;;4.72;1.70;;;;;;;22.99;43.73;100757.41;4162722;28;20033;-69
2022/07/04 00:23:48;;;;;;;3.47;1.65;;;;;;;22.89;44.04;100761.28;4174224;28;20037;-69
2022/07/04 00:25:51;;;;;;;5.22;1.50;;;;;;;23.04;43.24;100759.91;4181290;28;20071;-70
2022/07/04 00:27:55;;;;;;;2.75;1.20;;;;;;;23.01;43.39;100757.34;4178324;28;20073;-70
2022/07/04 00:29:58;;;;;;;;;;;;;;;22.84;43.84;100753.47;4165464;28;20520;-70
2022/07/04 00:32:02;;;;;;;5.28;1.75;;;;;;;22.81;43.51;100753.56;4180483;28;19920;-70
2022/07/04 00:34:05;;;;;;;4.57;1.27;;;;;;;22.91;43.59;100753.28;4180163;28;20443;-70
2022/07/04 00:36:08;;;;;;;4.38;1.60;;;;;;;22.88;43.53;100754.25;4162840;28;20072;-70
2022/07/04 00:38:11;;;;;;;5.57;1.55;;;;;;;22.81;43.72;100753.56;4181417;28;20068;-70
2022/07/04 00:40:14;;;;;;;4.03;1.60;;;;;;;22.86;43.49;100761.38;4181389;28;20044;-69
2022/07/04 00:42:17;;;;;;;5.22;1.98;;;;;;;22.79;43.53;100766.03;4183641;28;20072;-69
2022/07/04 00:44:21;;;;;;;4.28;1.42;;;;;;;22.65;43.78;100758.50;4180228;28;20036;-69
2022/07/04 00:46:24;;;;;;;2.83;1.35;;;;;;;22.64;43.91;100762.06;4162277;28;20045;-69
2022/07/04 00:48:27;;;;;;;2.00;1.20;;;;;;;22.64;44.31;100767.34;4174043;28;20036;-69
2022/07/04 00:50:30;;;;;;;5.38;1.67;;;;;;;22.65;44.72;100763.78;4181165;28;20029;-69
2022/07/04 00:52:33;;;;;;;5.57;1.48;;;;;;;22.81;44.59;100772.13;4180254;28;20480;-69
2022/07/04 00:54:36;;;;;;;2.97;1.27;;;;;;;22.72;44.95;100766.25;4163240;28;20049;-69
2022/07/04 00:56:42;;;;;;;3.72;1.42;;;;;;;22.73;45.26;100768.00;4177591;28;20446;-69
2022/07/04 00:58:45;;;;;;;6.00;1.33;;;;;;;22.77;45.00;100772.28;4165415;28;20041;-69
2022/07/04 01:00:50;;;;;;;4.30;1.25;;;;;;;22.73;45.40;100778.59;4179789;28;20036;-69
2022/07/04 01:02:53;;;;;;;3.70;1.20;;;;;;;22.71;45.45;100789.25;4182879;28;20125;-69
2022/07/04 01:04:55;;;;;;;3.17;1.50;;;;;;;22.61;45.92;100782.50;4165763;28;20508;-69
2022/07/04 01:06:58;;;;;;;1.95;1.30;;;;;;;22.60;45.45;100780.75;4173475;28;20116;-69
2022/07/04 01:09:01;;;;;;;6.38;2.20;;;;;;;22.66;45.26;100786.75;4180576;28;20040;-69
2022/07/04 01:11:04;;;;;;;3.40;1.13;;;;;;;22.66;45.71;100791.16;4157500;28;20041;-69
2022/07/04 01:13:07;;;;;;;2.10;1.00;;;;;;;22.63;45.63;100800.09;4180119;28;20511;-69
2022/07/04 01:15:11;;;;;;;2.53;0.90;;;;;;;22.64;45.49;100799.16;4173110;28;20043;-69
2022/07/04 01:17:15;;;;;;;2.65;1.50;;;;;;;22.74;44.91;100805.06;4172981;28;20107;-68
2022/07/04 01:19:18;;;;;;;4.53;1.30;;;;;;;22.61;45.19;100803.69;4163067;28;20056;-69
2022/07/04 01:21:22;;;;;;;2.72;1.27;;;;;;;22.56;45.26;100805.59;4172040;28;20530;-69
2022/07/04 01:23:25;;;;;;;4.53;1.27;;;;;;;22.75;44.23;100805.91;4173469;28;20123;-69
2022/07/04 01:25:28;;;;;;;1.98;1.05;;;;;;;22.55;44.84;100812.69;4180101;28;20518;-69
2022/07/04 01:27:31;;;;;;;3.97;1.70;;;;;;;22.57;44.82;100808.19;4179995;28;20068;-69
2022/07/04 01:29:34;;;;;;;3.78;1.30;;;;;;;22.49;44.92;100810.22;4181018;28;20424;-69
2022/07/04 01:31:37;;;;;;;3.30;1.10;;;;;;;22.52;44.79;100812.78;4158100;28;20045;-69
2022/07/04 01:33:40;;;;;;;9.80;1.65;;;;;;;22.43;45.05;100810.41;4172747;28;20522;-69
2022/07/04 01:35:43;;;;;;;2.88;1.38;;;;;;;22.41;45.23;100812.22;4154286;28;20037;-69
2022/07/04 01:37:47;;;;;;;2.97;1.40;;;;;;;22.49;44.74;100815.53;4180089;28;20033;-68
2022/07/04 01:39:50;;;;;;;5.63;1.40;;;;;;;22.41;44.72;100817.53;4162740;28;20057;-69
2022/07/04 01:41:53;;;;;;;4.90;1.13;;;;;;;22.26;45.21;100817.03;4168379;28;20029;-69
2022/07/04 01:43:56;;;;;;;2.55;1.30;;;;;;;22.33;44.86;100815.13;4177249;28;20045;-69
2022/07/04 01:45:59;;;;;;;1.20;1.10;;;;;;;22.17;45.31;100809.34;4184237;28;20041;-70
2022/07/04 01:48:02;;;;;;;3.55;1.30;;;;;;;22.19;44.91;100812.81;4181745;28;20059;-69
2022/07/04 01:50:06;;;;;;;3.85;1.00;;;;;;;22.14;45.44;100812.09;4174098;28;20554;-70
2022/07/04 01:52:09;;;;;;;4.93;1.25;;;;;;;22.08;45.54;100817.56;4172128;28;20500;-69
2022/07/04 01:54:13;;;;;;;4.75;1.80;;;;;;;22.18;45.05;100819.03;4179273;28;20145;-69
2022/07/04 01:56:16;;;;;;;;;;;;;;;21.79;45.81;100820.06;4146744;28;20149;-69
2022/07/04 01:58:19;;;;;;;2.83;1.25;;;;;;;21.78;45.79;100812.19;4161772;28;20319;-69
2022/07/04 02:02:43;;;;;;;4.65;1.65;;;;;;;21.77;45.73;100815.72;4175952;28;20037;-69
2022/07/04 02:04:46;;;;;;;1.60;0.80;;;;;;;22.00;44.98;100808.97;4162087;28;20037;-69
2022/07/04 02:06:49;;;;;;;3.67;1.30;;;;;;;21.85;45.33;100810.25;4179908;28;20381;-70
2022/07/04 02:11:15;;;;;;;1.48;0.93;;;;;;;21.74;45.97;100816.69;4172946;28;20433;-70
2022/07/04 02:13:16;;;;;;;4.53;1.33;;;;;;;21.64;46.02;100830.19;4171174;28;20063;-69
2022/07/04 02:15:19;;;;;;;3.80;1.30;;;;;;;21.61;46.08;100825.84;4181803;28;20048;-69
2022/07/04 02:17:22;;;;;;;4.25;1.20;;;;;;;21.60;46.27;100832.94;4171353;28;20041;-70
2022/07/04 02:19:25;;;;;;;1.73;0.90;;;;;;;21.58;46.07;100821.53;4178423;28;20072;-69
2022/07/04 02:21:28;;;;;;;3.10;1.23;;;;;;;21.54;46.15;100822.50;4173236;28;20040;-70
2022/07/04 02:23:31;;;;;;;4.18;1.15;;;;;;;21.65;45.82;100822.22;4161838;28;20509;-69
2022/07/04 02:25:34;;;;;;;1.95;1.08;;;;;;;21.65;45.88;100831.94;4179703;28;20048;-69
2022/07/04 02:27:42;;;;;;;1.90;1.05;;;;;;;21.57;46.37;100825.06;4168559;28;20045;-69
2022/07/04 02:29:45;;;;;;;;;;;;;;;21.42;46.64;100830.69;4178554;28;20060;-69
2022/07/04 02:31:47;;;;;;;4.63;0.93;;;;;;;21.51;46.82;100837.56;4161559;28;19952;-69
2022/07/04 02:33:50;;;;;;;2.30;1.00;;;;;;;21.53;46.62;100828.69;4175524;28;20489;-69
2022/07/04 02:35:53;;;;;;;2.22;1.02;;;;;;;21.56;46.73;100825.13;4163092;28;20466;-70
2022/07/04 02:37:56;;;;;;;3.85;1.30;;;;;;;21.66;46.28;100828.41;4177977;28;20124;-69
2022/07/04 02:39:59;;;;;;;1.80;1.00;;;;;;;21.61;46.43;100824.09;4179359;28;20140;-69
2022/07/04 02:42:02;;;;;;;3.55;1.27;;;;;;;21.65;46.48;100822.22;4161652;28;20034;-69
2022/07/04 02:44:07;;;;;;;4.25;1.25;;;;;;;21.61;46.36;100837.31;4182696;28;20044;-69
2022/07/04 02:46:10;;;;;;;1.73;1.02;;;;;;;21.53;46.54;100830.47;4179687;28;20063;-70
2022/07/04 02:48:13;;;;;;;4.43;1.30;;;;;;;21.50;46.59;100836.69;4172545;28;20033;-70
2022/07/04 02:50:15;;;;;;;1.88;1.10;;;;;;;21.48;46.40;100838.50;4173119;28;20477;-70
2022/07/04 02:52:18;;;;;;;3.00;1.30;;;;;;;21.43;46.81;100840.38;4160733;28;20065;-70
2022/07/04 02:54:21;;;;;;;3.35;1.02;;;;;;;21.35;47.40;100844.97;4180928;28;20032;-70
2022/07/04 02:56:25;;;;;;;3.58;1.38;;;;;;;21.39;46.95;100846.66;4177860;28;20136;-70
2022/07/04 02:58:28;;;;;;;1.95;1.30;;;;;;;21.39;46.95;100842.25;4180269;28;20045;-69
2022/07/04 03:00:32;;;;;;;1.48;0.80;;;;;;;21.38;47.26;100853.72;4169828;28;20049;-69
2022/07/04 03:02:35;;;;;;;2.53;1.10;;;;;;;21.25;47.13;100849.66;4173888;28;20045;-69
2022/07/04 03:04:39;;;;;;;4.97;1.75;;;;;;;21.32;46.84;100847.72;4179614;28;20504;-69
2022/07/04 03:06:42;;;;;;;2.33;1.35;;;;;;;21.22;47.35;100852.38;4179225;28;20381;-69
2022/07/04 03:08:45;;;;;;;3.40;1.30;;;;;;;21.27;46.80;100855.75;4169754;28;20047;-69
2022/07/04 03:10:50;;;;;;;2.55;1.20;;;;;;;21.16;47.56;100863.06;4179388;28;20394;-69
2022/07/04 03:12:52;;;;;;;;;;;;;;;21.02;47.83;100863.41;4179364;28;20116;-69
2022/07/04 03:14:55;;;;;;;3.60;1.20;;;;;;;21.11;48.00;100868.47;4174705;28;19935;-69
2022/07/04 03:17:00;;;;;;;2.40;1.27;;;;;;;21.16;47.52;100866.59;4162058;28;20056;-69
2022/07/04 03:19:03;;;;;;;2.83;0.82;;;;;;;21.14;47.83;100875.47;4162841;28;20048;-69
2022/07/04 03:21:05;;;;;;;2.25;1.10;;;;;;;21.14;47.88;100872.81;4174345;28;20045;-69
2022/07/04 03:23:15;;;;;;;2.95;1.10;;;;;;;21.18;47.70;100875.34;4182349;28;20504;-69
2022/07/04 03:25:18;;;;;;;2.05;0.93;;;;;;;21.16;47.43;100873.63;4177819;28;20040;-69
2022/07/04 03:27:21;;;;;;;3.20;1.10;;;;;;;21.10;47.69;100875.53;4182440;28;20036;-69
2022/07/04 03:29:25;;;;;;;2.10;1.00;;;;;;;21.09;48.00;100875.56;4170030;28;20044;-69
2022/07/04 03:31:29;;;;;;;3.17;1.27;;;;;;;21.02;48.34;100866.03;4180216;28;20470;-69
2022/07/04 03:33:34;;;;;;;2.92;1.27;;;;;;;21.07;47.67;100866.78;4177097;28;20466;-69
2022/07/04 03:35:36;;;;;;;2.92;1.35;;;;;;;21.12;47.46;100870.22;4182053;28;20037;-69
2022/07/04 03:37:40;;;;;;;3.08;1.10;;;;;;;20.96;47.92;100871.47;4190042;28;20056;-69
2022/07/04 03:39:43;;;;;;;4.55;1.27;;;;;;;20.97;48.07;100876.72;4182091;28;20057;-69
2022/07/04 03:41:53;;;;;;;5.28;1.27;;;;;;;20.94;48.36;100879.44;4178810;28;20610;-69
2022/07/04 03:43:55;;;;;;;3.30;1.20;;;;;;;20.92;48.37;100873.31;4182766;28;20032;-69
2022/07/04 03:45:58;;;;;;;3.13;1.08;;;;;;;20.92;48.71;100876.84;4181014;28;20043;-69
2022/07/04 03:48:03;;;;;;;2.47;1.10;;;;;;;21.02;48.09;100880.13;4164449;28;20542;-69
2022/07/04 03:50:09;;;;;;;7.00;1.95;;;;;;;20.99;48.17;100879.34;4175958;28;20477;-69
2022/07/04 03:52:11;;;;;;;7.40;1.50;;;;;;;20.99;47.94;100879.34;4162548;28;20041;-69
2022/07/04 03:54:14;;;;;;;2.90;1.10;;;;;;;20.93;48.75;100885.63;4181655;28;20324;-69
2022/07/04 03:56:19;;;;;;;3.08;1.40;;;;;;;20.98;48.40;100888.16;4182148;28;20041;-69
2022/07/04 03:58:22;;;;;;;5.05;1.73;;;;;;;20.98;48.88;100888.16;4164181;28;20050;-69
2022/07/04 04:00:25;;;;;;;2.47;1.20;;;;;;;20.95;49.34;100889.09;4181847;28;20527;-69
2022/07/04 04:02:28;;;;;;;3.05;1.30;;;;;;;21.04;48.93;100891.53;4178606;28;20043;-69
2022/07/04 04:06:53;;;;;;;3.88;1.40;;;;;;;20.93;49.27;100891.75;4176103;28;20037;-69
2022/07/04 04:08:56;;;;;;;4.28;1.50;;;;;;;21.03;48.67;100891.59;4171594;28;20127;-70
2022/07/04 04:10:59;;;;;;;5.10;1.63;;;;;;;21.03;48.53;100886.28;4160862;28;20037;-69
2022/07/04 04:13:01;;;;;;;3.33;1.33;;;;;;;20.99;49.51;100889.91;4175002;28;20052;-69
2022/07/04 04:15:05;;;;;;;4.90;1.48;;;;;;;21.00;49.55;100889.88;4164146;28;20470;-69
2022/07/04 04:17:08;;;;;;;3.20;1.23;;;;;;;21.02;49.62;100889.84;4179498;28;20040;-69
2022/07/04 04:19:12;;;;;;;2.95;1.27;;;;;;;21.07;49.79;100898.50;4165623;28;20052;-68
2022/07/04 04:21:15;;;;;;;4.45;1.23;;;;;;;21.16;49.54;100893.03;4181120;28;20098;-67
2022/07/04 04:23:20;;;;;;;2.85;1.52;;;;;;;21.30;49.18;100894.50;4173389;28;20120;-67
2022/07/04 04:25:23;;;;;;;3.92;1.63;;;;;;;21.29;49.39;100893.63;4167104;28;20153;-67
2022/07/04 04:27:25;;;;;;;5.40;1.30;;;;;;;21.31;49.56;100902.38;4162010;28;20125;-67
2022/07/04 04:29:28;;;;;;;2.17;1.60;;;;;;;21.41;49.34;100905.69;4176051;28;20047;-67
2022/07/04 04:31:31;;;;;;;5.53;1.35;;;;;;;21.50;49.18;100909.91;4170959;28;20464;-68
2022/07/04 04:33:35;;;;;;;4.60;1.98;;;;;;;21.56;48.56;100909.78;4175808;28;20045;-67
2022/07/04 04:35:38;;;;;;;5.07;1.70;;;;;;;21.43;48.55;100911.81;4160849;28;20528;-67
2022/07/04 04:37:41;;;;;;;5.68;2.45;;;;;;;21.51;48.17;100914.28;4145266;28;20525;-67
2022/07/04 04:39:45;;;;;;;4.47;2.25;;;;;;;21.31;48.40;100912.09;4164093;28;20048;-67
2022/07/04 04:41:48;;;;;;;6.75;2.33;;;;;;;21.28;48.63;100907.75;4180862;28;20037;-67
2022/07/04 04:43:51;;;;;;;4.90;2.22;;;;;;;21.25;48.70;100924.53;4178605;28;20045;-67
2022/07/04 04:45:55;;;;;;;11.35;2.78;;;;;;;21.25;48.50;100919.25;4179789;28;20067;-65
2022/07/04 04:47:58;;;;;;;9.07;2.30;;;;;;;21.14;49.27;100923.91;4178201;28;20423;-66
2022/07/04 04:50:01;;;;;;;7.97;2.38;;;;;;;21.14;48.85;100925.69;4174055;28;20037;-67
2022/07/04 04:52:05;;;;;;;3.83;2.22;;;;;;;21.05;49.58;100929.41;4175398;28;20041;-66
2022/07/04 04:54:09;;;;;;;4.85;2.00;;;;;;;20.97;49.24;100932.22;4178067;28;20510;-67
2022/07/04 04:56:13;;;;;;;6.20;2.38;;;;;;;21.04;49.53;100935.59;4171026;28;20045;-67
2022/07/04 04:58:16;;;;;;;5.57;2.28;;;;;;;20.94;49.69;100942.88;4168450;28;20052;-66
2022/07/04 05:00:19;;;;;;;7.10;2.67;;;;;;;21.01;49.17;100931.28;4170677;28;20037;-67
2022/07/04 05:02:22;;;;;;;6.75;2.00;;;;;;;20.92;49.43;100942.91;4169419;28;20567;-67
2022/07/04 05:04:25;;;;;;;7.13;2.28;;;;;;;20.88;49.64;100937.69;4172823;28;20513;-65
2022/07/04 05:06:28;;;;;;;6.03;2.30;;;;;;;20.93;49.28;100941.97;4155574;28;20128;-66
2022/07/04 05:08:31;;;;;;;4.05;1.83;;;;;;;20.91;49.35;100943.81;4177220;28;20044;-66
2022/07/04 05:10:34;;;;;;;11.90;2.47;;;;;;;20.89;48.94;100948.22;4163027;28;20041;-66
2022/07/04 05:12:38;;;;;;;4.50;1.95;;;;;;;20.87;48.83;100947.41;4160262;28;20129;-66
2022/07/04 05:14:42;;;;;;;5.57;2.03;;;;;;;20.88;48.94;100948.25;4161113;28;20034;-65
2022/07/04 05:16:45;;;;;;;3.92;1.85;;;;;;;20.72;49.16;100945.06;4159531;28;20132;-66
2022/07/04 05:18:49;;;;;;;5.60;1.70;;;;;;;20.64;49.66;100941.69;4173468;28;20047;-66
2022/07/04 05:20:52;;;;;;;5.75;2.55;;;;;;;20.67;49.88;100947.81;4170703;28;20073;-66
2022/07/04 05:22:54;;;;;;;7.47;2.90;;;;;;;20.68;49.64;100948.69;4178818;28;20037;-66
2022/07/04 05:24:57;;;;;;;5.85;2.13;;;;;;;20.64;50.14;100954.91;4172927;28;20040;-66
2022/07/04 05:27:00;;;;;;;5.05;2.03;;;;;;;20.65;49.91;100946.09;4174766;28;20040;-65
2022/07/04 05:29:04;;;;;;;5.25;2.25;;;;;;;20.70;50.44;100946.88;4178287;28;20032;-66
2022/07/04 05:31:07;;;;;;;9.18;2.25;;;;;;;20.66;50.11;100947.81;4158388;28;20057;-66
2022/07/04 05:33:11;;;;;;;6.35;2.30;;;;;;;20.73;50.14;100950.34;4169319;28;20045;-65
2022/07/04 05:35:14;;;;;;;4.60;2.35;;;;;;;20.81;49.89;100951.94;4178641;28;20047;-66
2022/07/04 05:37:17;;;;;;;4.65;2.00;;;;;;;20.89;49.60;100953.50;4180529;28;20047;-66
2022/07/04 05:39:20;;;;;;;5.63;2.20;;;;;;;20.80;49.84;100959.00;4176523;28;20128;-66
2022/07/04 05:41:23;;;;;;;7.10;1.90;;;;;;;20.87;49.92;100954.47;4178567;28;20033;-66
2022/07/04 05:43:26;;;;;;;5.93;2.28;;;;;;;20.91;50.21;100962.31;4157669;28;20496;-66
2022/07/04 05:45:30;;;;;;;6.13;2.47;;;;;;;20.93;49.60;100963.13;4170135;28;20555;-66
2022/07/04 05:47:33;;;;;;;3.40;1.85;;;;;;;21.06;48.89;100965.53;4154584;28;20128;-66
2022/07/04 05:49:36;;;;;;;5.38;1.90;;;;;;;21.02;49.30;100963.84;4178817;28;20044;-66
2022/07/04 05:51:39;;;;;;;6.20;2.13;;;;;;;21.03;49.19;100969.09;4178014;28;20500;-67
2022/07/04 05:53:42;;;;;;;5.20;1.70;;;;;;;20.93;49.61;100965.78;4175678;28;20037;-67
2022/07/04 05:55:45;;;;;;;10.65;2.45;;;;;;;21.10;49.67;100969.84;4178115;28;20037;-67
2022/07/04 05:57:48;;;;;;;9.13;2.33;;;;;;;21.17;49.50;100975.88;4179151;28;20449;-67
2022/07/04 05:59:51;;;;;;;8.48;2.53;;;;;;;21.22;49.26;100972.22;4177430;28;20136;-66
2022/07/04 06:01:55;;;;;;;4.53;2.40;;;;;;;21.19;49.16;100977.56;4175269;28;20033;-66
2022/07/04 06:03:58;;;;;;;;;;;;;;;20.93;49.65;100976.34;4156878;28;20032;-67
2022/07/04 06:06:01;;;;;;;5.18;1.52;;;;;;;20.88;50.00;100978.22;4175301;28;19931;-67
2022/07/04 06:08:05;;;;;;;6.60;2.13;;;;;;;21.14;49.65;100974.16;4176480;28;20048;-66
2022/07/04 06:10:09;;;;;;;4.05;1.92;;;;;;;21.21;49.14;100978.41;4159767;28;20502;-67
2022/07/04 06:12:12;;;;;;;4.13;2.13;;;;;;;21.23;49.66;100975.72;4178184;28;20136;-67
2022/07/04 06:14:15;;;;;;;6.00;2.08;;;;;;;21.36;49.39;100974.56;4159024;28;20061;-67
2022/07/04 06:16:18;;;;;;;4.15;2.08;;;;;;;21.35;49.50;100978.13;4176753;28;20029;-67
2022/07/04 06:18:23;;;;;;;6.88;1.85;;;;;;;21.46;49.06;100975.22;4159247;28;20464;-65
2022/07/04 06:20:26;;;;;;;6.68;1.73;;;;;;;21.53;48.97;100974.19;4176792;28;20049;-66
2022/07/04 06:22:39;;;;;;;7.25;2.00;;;;;;;21.63;48.83;100971.38;4176532;28;20041;-66
2022/07/04 06:24:42;;;;;;;4.68;2.03;;;;;;;21.59;48.84;100975.84;4155695;28;20090;-67
2022/07/04 06:26:45;;;;;;;9.93;2.72;;;;;;;21.59;48.93;100975.84;4141210;28;20050;-66
2022/07/04 06:28:48;;;;;;;6.53;2.00;;;;;;;21.63;48.47;100974.88;4160700;28;20556;-67
2022/07/04 06:30:51;;;;;;;3.97;1.65;;;;;;;21.52;49.16;100975.09;4164062;28;20149;-66
2022/07/04 06:32:56;;;;;;;3.60;1.60;;;;;;;21.53;48.95;100971.56;4174671;28;20029;-67
2022/07/04 06:37:21;;;;;;;7.88;3.45;;;;;;;21.68;48.25;100966.81;4176757;28;20024;-65
2022/07/04 06:39:24;;;;;;;9.02;3.00;;;;;;;21.59;48.71;100962.63;4174332;28;20040;-66
2022/07/04 06:41:27;;;;;;;5.70;3.17;;;;;;;21.77;47.72;100963.94;4177334;28;20495;-64
2022/07/04 06:43:30;;;;;;;8.60;2.92;;;;;;;21.67;48.40;100962.41;4172617;28;20092;-67
2022/07/04 06:45:34;;;;;;;6.13;2.63;;;;;;;21.72;48.15;100963.19;4177465;28;20283;-66
2022/07/04 06:47:37;;;;;;;5.57;2.50;;;;;;;21.80;47.75;100963.88;4172406;28;20066;-66
2022/07/04 06:49:40;;;;;;;9.15;1.80;;;;;;;21.80;48.20;100961.25;4175836;28;20098;-66
2022/07/04 06:51:45;;;;;;;12.10;2.23;;;;;;;21.68;48.01;100959.72;4175832;28;20032;-65
2022/07/04 06:53:48;;;;;;;4.70;1.92;;;;;;;21.67;48.42;100960.66;4173290;28;20132;-66
2022/07/04 06:55:51;;;;;;;5.53;2.00;;;;;;;21.82;48.20;100959.41;4178783;28;20025;-67
2022/07/04 06:57:54;;;;;;;5.50;2.00;;;;;;;21.81;47.54;100960.31;4161842;28;20515;-64
2022/07/04 06:59:57;;;;;;;5.50;1.95;;;;;;;21.77;47.79;100956.88;4154768;28;20117;-66
2022/07/04 07:02:00;;;;;;;6.05;2.00;;;;;;;21.85;47.89;100961.13;4175072;28;20032;-67
2022/07/04 07:04:03;;;;;;;4.25;1.65;;;;;;;21.91;47.27;100961.81;4174798;28;20559;-67
2022/07/04 07:06:06;;;;;;;6.43;1.80;;;;;;;21.99;46.74;100958.13;4160567;28;20041;-66
2022/07/04 07:08:26;;;;;;;6.50;1.77;;;;;;;21.88;46.86;100961.03;4175583;28;20049;-68
2022/07/04 07:10:39;;;;;;;7.90;2.30;;;;;;;21.91;47.23;100961.81;4176924;28;20080;-66
2022/07/04 07:12:42;;;;;;;7.70;1.98;;;;;;;21.96;46.92;100956.41;4175878;28;20072;-66
2022/07/04 07:14:45;;;;;;;8.75;1.77;;;;;;;22.03;47.33;100949.19;4176223;28;20079;-66
2022/07/04 07:16:48;;;;;;;3.25;1.95;;;;;;;22.16;46.21;100960.34;4172832;28;20030;-66
2022/07/04 07:18:51;;;;;;;6.40;1.83;;;;;;;21.99;46.66;100953.72;4156592;28;20060;-66
2022/07/04 07:20:54;;;;;;;7.13;1.80;;;;;;;22.05;46.36;100945.59;4174747;28;20514;-71
2022/07/04 07:22:57;;;;;;;7.93;2.38;;;;;;;22.05;46.51;100947.38;4167685;28;20504;-70
2022/07/04 07:25:01;;;;;;;3.72;1.88;;;;;;;22.20;46.08;100944.31;4166874;28;20051;-71
2022/07/04 07:27:05;;;;;;;6.10;2.10;;;;;;;22.21;46.57;100943.44;4176333;28;20439;-71
2022/07/04 07:29:08;;;;;;;9.23;2.17;;;;;;;22.27;46.04;100943.25;4178488;28;20040;-70
2022/07/04 07:31:10;;;;;;;4.15;1.50;;;;;;;22.29;45.30;100946.72;4160979;28;20038;-72
2022/07/04 07:33:14;;;;;;;6.28;1.75;;;;;;;22.34;45.86;100943.13;4171685;28;20041;-70
2022/07/04 07:35:16;;;;;;;4.47;1.67;;;;;;;22.52;45.11;100939.97;4180610;28;20143;-71
2022/07/04 07:37:21;;;;;;;5.07;1.48;;;;;;;22.33;45.44;100936.06;4181326;28;20128;-71
2022/07/04 07:39:24;;;;;;;3.60;1.52;;;;;;;22.31;46.07;100934.31;4182498;28;20039;-71
2022/07/04 07:41:28;;;;;;;3.55;1.42;;;;;;;22.43;45.76;100933.16;4165057;28;20052;-70
2022/07/04 07:43:31;;;;;;;;;;;;;;;22.60;44.64;100930.00;4165125;28;20132;-70
2022/07/04 07:45:34;;;;;;;3.30;1.60;;;;;;;22.53;45.29;100924.94;4182898;28;20384;-73
2022/07/04 07:47:37;;;;;;;6.15;1.83;;;;;;;22.38;45.67;100928.88;4162115;28;20457;-72
2022/07/04 07:49:41;;;;;;;3.25;1.48;;;;;;;22.52;45.67;100917.91;4180509;28;20033;-72
2022/07/04 07:51:44;;;;;;;4.00;1.60;;;;;;;22.71;44.84;100926.22;4182515;28;20045;-73
2022/07/04 07:53:47;;;;;;;7.65;1.83;;;;;;;22.84;44.10;100911.69;4182494;28;20083;-71
2022/07/04 07:56:10;;;;;;;4.50;1.70;;;;;;;22.79;44.19;100922.44;4170085;28;20033;-71
2022/07/04 07:58:14;;;;;;;9.95;1.80;;;;;;;22.65;44.92;100917.50;4172042;28;20043;-71
2022/07/04 08:00:18;;;;;;;5.00;1.77;;;;;;;22.82;44.74;100924.97;4182526;28;20051;-71
2022/07/04 08:05:01;;;;;;;4.00;1.88;;;;;;;23.02;43.63;100915.56;4180131;28;20087;-73
2022/07/04 08:07:05;;;;;;;6.97;1.77;;;;;;;23.03;42.94;100917.31;4176601;28;20049;-72
2022/07/04 08:09:24;;;;;;;5.30;1.45;;;;;;;22.92;43.87;100914.09;4176540;28;20041;-72
2022/07/04 08:11:27;;;;;;;6.70;1.60;;;;;;;22.93;44.72;100908.75;4140011;28;20061;-72
2022/07/04 08:13:31;;;;;;;4.68;1.90;;;;;;;22.98;43.97;100912.13;4180170;28;20120;-72
2022/07/04 08:15:34;;;;;;;;;;;;;;;22.93;44.16;100906.09;4159870;28;20033;-72
2022/07/04 08:17:37;;;;;;;4.88;1.73;;;;;;;23.19;43.37;100909.78;4170193;28;19920;-74
2022/07/04 08:19:40;;;;;;;6.00;1.80;;;;;;;23.05;43.83;100912.81;4142308;28;20033;-73
2022/07/04 08:21:46;;;;;;;3.67;1.50;;;;;;;23.13;43.92;100902.88;4171598;28;20052;-73
2022/07/04 08:24:09;;;;;;;2.83;1.40;;;;;;;23.35;42.32;100911.03;4161868;28;20041;-72
2022/07/04 08:26:21;;;;;;;6.65;1.77;;;;;;;23.31;43.05;100911.16;4170975;28;20141;-73
2022/07/04 08:28:25;;;;;;;5.30;1.90;;;;;;;23.32;43.03;100915.56;4180360;28;20052;-73
2022/07/04 08:30:29;;;;;;;4.05;1.27;;;;;;;23.25;43.02;100906.91;4160041;28;20033;-73
2022/07/04 08:32:32;;;;;;;;;;;;;;;23.22;43.43;100903.47;4173242;28;20047;-73
2022/07/04 08:34:35;;;;;;;3.72;1.10;;;;;;;23.40;42.79;100905.56;4170949;28;19932;-73
2022/07/04 08:36:38;;;;;;;4.35;1.42;;;;;;;23.57;42.80;100904.13;4176420;28;20398;-73
2022/07/04 08:38:41;;;;;;;2.22;1.42;;;;;;;23.58;42.28;100914.69;4159158;28;20598;-73
2022/07/04 08:40:44;;;;;;;6.00;1.90;;;;;;;23.50;41.94;100906.13;4161486;28;20269;-74
2022/07/04 08:42:47;;;;;;;2.45;1.20;;;;;;;23.50;42.12;100909.66;4179846;28;20095;-73
2022/07/04 08:44:52;;;;;;;1.73;1.00;;;;;;;23.55;42.72;100909.50;4159718;28;20057;-73
2022/07/04 08:46:57;;;;;;;4.65;1.67;;;;;;;23.50;42.11;100903.47;4176706;28;20513;-73
2022/07/04 08:49:07;;;;;;;8.77;2.33;;;;;;;23.69;41.75;100907.25;4177272;28;20032;-74
2022/07/04 08:51:15;;;;;;;7.72;2.60;;;;;;;23.82;41.44;100909.50;4177498;28;20055;-73
2022/07/04 08:53:20;;;;;;;6.10;1.90;;;;;;;23.72;41.96;100905.44;4179943;28;20037;-74
2022/07/04 09:00:07;;;;;;;7.95;1.60;;;;;;;23.88;42.04;100902.22;4179684;28;20052;-74
2022/07/04 09:02:14;;;;;;;4.10;1.58;;;;;;;23.99;41.76;100904.53;4178721;28;20040;-73
2022/07/04 09:04:17;;;;;;;6.47;1.58;;;;;;;24.17;40.97;100908.31;4180144;28;20133;-73
2022/07/04 09:06:21;;;;;;;3.95;1.80;;;;;;;24.05;40.81;100906.97;4179744;28;20061;-73
2022/07/04 09:08:24;;;;;;;4.57;2.30;;;;;;;23.95;40.62;100902.91;4162469;28;20041;-73
2022/07/04 09:10:27;;;;;;;5.43;2.55;;;;;;;24.08;40.42;100891.81;4178266;28;20037;-73
2022/07/04 09:12:30;;;;;;;4.05;1.98;;;;;;;24.09;40.72;100890.91;4175977;28;20044;-73
2022/07/04 09:14:53;;;;;;;5.88;2.20;;;;;;;24.02;40.58;100893.78;4180260;28;20175;-73
2022/07/04 09:16:57;;;;;;;4.70;1.70;;;;;;;23.96;41.39;100890.47;4177509;28;20076;-74
2022/07/04 09:19:01;;;;;;;3.70;1.42;;;;;;;24.02;42.06;100888.47;4178219;28;20123;-74
2022/07/04 09:21:06;;;;;;;4.45;1.88;;;;;;;24.29;41.22;100895.53;4178032;28;20067;-73
2022/07/04 09:23:19;;;;;;;5.28;2.17;;;;;;;24.34;40.48;100893.56;4178304;28;20044;-74
2022/07/04 09:25:23;;;;;;;4.63;1.90;;;;;;;24.40;39.99;100888.91;4179853;28;20170;-72
2022/07/04 09:27:32;;;;;;;4.13;2.20;;;;;;;24.30;40.49;100882.19;4176730;28;20037;-74
2022/07/04 09:29:34;;;;;;;7.70;2.20;;;;;;;24.29;41.08;100884.91;4180261;28;20041;-74
2022/07/04 09:31:39;;;;;;;5.05;2.63;;;;;;;24.31;40.66;100877.72;4187540;28;20040;-74
2022/07/04 09:33:47;;;;;;;4.22;1.67;;;;;;;24.38;40.84;100884.56;4178474;28;20087;-73
2022/07/04 09:35:51;;;;;;;6.85;1.95;;;;;;;24.47;41.42;100884.19;4178933;28;20628;-74
2022/07/04 09:37:55;;;;;;;6.63;2.28;;;;;;;24.53;40.92;100875.13;4177257;28;20033;-74
2022/07/04 09:39:58;;;;;;;3.65;1.40;;;;;;;24.71;40.26;100870.97;4168387;28;20064;-74
2022/07/04 09:42:02;;;;;;;5.80;1.70;;;;;;;24.81;39.71;100882.09;4178786;28;20094;-74
2022/07/04 09:44:06;;;;;;;;;;;;;;;24.79;39.51;100879.50;4178781;28;20048;-74
2022/07/04 09:46:11;;;;;;;1.92;1.30;;;;;;;24.76;39.38;100884.94;4178097;28;19924;-74
2022/07/04 09:48:14;;;;;;;7.35;1.80;;;;;;;24.70;39.28;100886.03;4180406;28;20033;-74
2022/07/04 09:50:18;;;;;;;2.15;1.02;;;;;;;24.74;39.42;100876.16;4172772;28;20036;-74
2022/07/04 09:52:23;;;;;;;2.97;1.17;;;;;;;25.02;38.96;100881.25;4173511;28;20044;-74
2022/07/04 09:54:29;;;;;;;;;;;;;;;24.88;39.01;100879.16;4174493;28;20037;-74